sensor_id;sensor_type;location;lat;lon;timestamp;P1;durP1;ratioP1;P2;durP2;ratioP2
34988;SDS011;21192;40.182;44.516;2022-07-12T00:01:40;22.35;;;5.47;;
34988;SDS011;21192;40.182;44.516;2022-07-12T00:04:06;15.95;;;4.40;;
34988;SDS011;21192;40.182;44.516;2022-07-12T00:06:32;21.35;;;5.38;;
34988;SDS011;21192;40.182;44.516;2022-07-12T00:08:58;18.63;;;4.75;;
34988;SDS011;21192;40.182;44.516;2022-07-12T00:11:24;20.30;;;4.40;;
34988;SDS011;21192;40.182;44.516;2022-07-12T00:13:50;22.38;;;5.07;;
34988;SDS011;21192;40.182;44.516;2022-07-12T00:16:16;21.58;;;4.57;;
34988;SDS011;21192;40.182;44.516;2022-07-12T00:18:42;23.25;;;4.72;;
34988;SDS011;21192;40.182;44.516;2022-07-12T00:21:08;26.15;;;5.50;;
34988;SDS011;21192;40.182;44.516;2022-07-12T00:23:34;27.17;;;5.20;;
34988;SDS011;21192;40.182;44.516;2022-07-12T00:26:00;16.90;;;5.05;;
34988;SDS011;21192;40.182;44.516;2022-07-12T00:28:30;15.32;;;4.43;;
34988;SDS011;21192;40.182;44.516;2022-07-12T00:30:56;23.08;;;4.63;;
34988;SDS011;21192;40.182;44.516;2022-07-12T00:33:23;28.35;;;5.25;;
34988;SDS011;21192;40.182;44.516;2022-07-12T00:35:49;25.90;;;4.88;;
34988;SDS011;21192;40.182;44.516;2022-07-12T00:38:14;27.00;;;5.32;;
34988;SDS011;21192;40.182;44.516;2022-07-12T00:40:40;26.85;;;5.07;;
34988;SDS011;21192;40.182;44.516;2022-07-12T00:43:06;23.83;;;4.90;;
34988;SDS011;21192;40.182;44.516;2022-07-12T00:45:32;16.13;;;4.35;;
34988;SDS011;21192;40.182;44.516;2022-07-12T00:47:58;19.58;;;4.13;;
34988;SDS011;21192;40.182;44.516;2022-07-12T00:50:25;21.73;;;4.40;;
34988;SDS011;21192;40.182;44.516;2022-07-12T00:52:53;21.45;;;4.85;;
34988;SDS011;21192;40.182;44.516;2022-07-12T00:55:20;20.65;;;4.43;;
34988;SDS011;21192;40.182;44.516;2022-07-12T00:57:48;24.25;;;5.20;;
34988;SDS011;21192;40.182;44.516;2022-07-12T01:00:16;23.30;;;4.40;;
34988;SDS011;21192;40.182;44.516;2022-07-12T01:02:44;20.17;;;4.63;;
34988;SDS011;21192;40.182;44.516;2022-07-12T01:05:11;21.23;;;4.72;;
34988;SDS011;21192;40.182;44.516;2022-07-12T01:07:37;19.48;;;5.50;;
34988;SDS011;21192;40.182;44.516;2022-07-12T01:10:03;19.92;;;5.63;;
34988;SDS011;21192;40.182;44.516;2022-07-12T01:12:31;22.42;;;5.20;;
34988;SDS011;21192;40.182;44.516;2022-07-12T01:14:57;23.67;;;5.25;;
34988;SDS011;21192;40.182;44.516;2022-07-12T01:17:25;27.27;;;5.72;;
34988;SDS011;21192;40.182;44.516;2022-07-12T01:19:53;25.88;;;5.68;;
34988;SDS011;21192;40.182;44.516;2022-07-12T01:22:33;17.35;;;4.60;;
34988;SDS011;21192;40.182;44.516;2022-07-12T01:25:01;30.27;;;5.55;;
34988;SDS011;21192;40.182;44.516;2022-07-12T01:27:29;19.98;;;5.05;;
34988;SDS011;21192;40.182;44.516;2022-07-12T01:29:55;20.50;;;5.00;;
34988;SDS011;21192;40.182;44.516;2022-07-12T01:32:22;17.88;;;5.00;;
34988;SDS011;21192;40.182;44.516;2022-07-12T01:34:52;18.02;;;4.45;;
34988;SDS011;21192;40.182;44.516;2022-07-12T01:37:21;20.05;;;4.90;;
34988;SDS011;21192;40.182;44.516;2022-07-12T01:39:49;26.05;;;4.75;;
34988;SDS011;21192;40.182;44.516;2022-07-12T01:42:18;21.42;;;4.50;;
34988;SDS011;21192;40.182;44.516;2022-07-12T01:44:44;31.88;;;4.88;;
34988;SDS011;21192;40.182;44.516;2022-07-12T01:47:11;26.38;;;5.30;;
34988;SDS011;21192;40.182;44.516;2022-07-12T01:49:37;18.92;;;4.75;;
34988;SDS011;21192;40.182;44.516;2022-07-12T01:52:03;18.27;;;4.82;;
34988;SDS011;21192;40.182;44.516;2022-07-12T01:54:30;23.90;;;4.70;;
34988;SDS011;21192;40.182;44.516;2022-07-12T01:56:55;21.70;;;5.07;;
34988;SDS011;21192;40.182;44.516;2022-07-12T01:59:21;18.63;;;5.38;;
34988;SDS011;21192;40.182;44.516;2022-07-12T02:01:47;24.55;;;5.43;;
34988;SDS011;21192;40.182;44.516;2022-07-12T02:04:17;21.60;;;5.13;;
34988;SDS011;21192;40.182;44.516;2022-07-12T02:06:43;26.35;;;5.18;;
34988;SDS011;21192;40.182;44.516;2022-07-12T02:09:10;24.75;;;5.50;;
34988;SDS011;21192;40.182;44.516;2022-07-12T02:11:37;22.00;;;5.57;;
34988;SDS011;21192;40.182;44.516;2022-07-12T02:14:03;16.60;;;4.88;;
34988;SDS011;21192;40.182;44.516;2022-07-12T02:16:29;23.88;;;5.53;;
34988;SDS011;21192;40.182;44.516;2022-07-12T02:18:56;19.23;;;5.00;;
34988;SDS011;21192;40.182;44.516;2022-07-12T02:21:22;17.70;;;4.35;;
34988;SDS011;21192;40.182;44.516;2022-07-12T02:23:48;24.10;;;5.45;;
34988;SDS011;21192;40.182;44.516;2022-07-12T02:26:14;20.23;;;5.35;;
34988;SDS011;21192;40.182;44.516;2022-07-12T02:28:40;18.63;;;4.90;;
34988;SDS011;21192;40.182;44.516;2022-07-12T02:31:06;17.00;;;4.75;;
34988;SDS011;21192;40.182;44.516;2022-07-12T02:33:33;18.77;;;5.22;;
34988;SDS011;21192;40.182;44.516;2022-07-12T02:35:59;17.80;;;5.35;;
34988;SDS011;21192;40.182;44.516;2022-07-12T02:38:25;28.45;;;6.45;;
34988;SDS011;21192;40.182;44.516;2022-07-12T02:40:51;20.95;;;5.30;;
34988;SDS011;21192;40.182;44.516;2022-07-12T02:43:26;23.98;;;6.20;;
34988;SDS011;21192;40.182;44.516;2022-07-12T02:45:54;19.80;;;5.82;;
34988;SDS011;21192;40.182;44.516;2022-07-12T02:48:27;15.30;;;4.68;;
34988;SDS011;21192;40.182;44.516;2022-07-12T02:50:53;21.02;;;5.68;;
34988;SDS011;21192;40.182;44.516;2022-07-12T02:53:19;22.35;;;6.03;;
34988;SDS011;21192;40.182;44.516;2022-07-12T02:55:45;27.95;;;5.32;;
34988;SDS011;21192;40.182;44.516;2022-07-12T02:58:11;26.80;;;7.00;;
34988;SDS011;21192;40.182;44.516;2022-07-12T03:00:37;18.05;;;6.32;;
34988;SDS011;21192;40.182;44.516;2022-07-12T03:03:04;26.73;;;6.32;;
34988;SDS011;21192;40.182;44.516;2022-07-12T03:05:33;20.58;;;5.00;;
34988;SDS011;21192;40.182;44.516;2022-07-12T03:07:59;20.00;;;5.43;;
34988;SDS011;21192;40.182;44.516;2022-07-12T03:10:26;22.17;;;6.15;;
34988;SDS011;21192;40.182;44.516;2022-07-12T03:12:51;24.10;;;5.72;;
34988;SDS011;21192;40.182;44.516;2022-07-12T03:15:18;20.00;;;5.38;;
34988;SDS011;21192;40.182;44.516;2022-07-12T03:17:43;27.02;;;6.22;;
34988;SDS011;21192;40.182;44.516;2022-07-12T03:20:09;20.05;;;4.93;;
34988;SDS011;21192;40.182;44.516;2022-07-12T03:22:37;25.00;;;5.72;;
34988;SDS011;21192;40.182;44.516;2022-07-12T03:25:03;21.13;;;5.85;;
34988;SDS011;21192;40.182;44.516;2022-07-12T03:27:29;17.23;;;5.03;;
34988;SDS011;21192;40.182;44.516;2022-07-12T03:29:58;23.63;;;6.30;;
34988;SDS011;21192;40.182;44.516;2022-07-12T03:32:24;16.80;;;6.28;;
34988;SDS011;21192;40.182;44.516;2022-07-12T03:34:50;21.20;;;6.13;;
34988;SDS011;21192;40.182;44.516;2022-07-12T03:37:16;19.50;;;5.85;;
34988;SDS011;21192;40.182;44.516;2022-07-12T03:39:42;17.48;;;6.10;;
34988;SDS011;21192;40.182;44.516;2022-07-12T03:42:08;20.85;;;5.50;;
34988;SDS011;21192;40.182;44.516;2022-07-12T03:44:36;20.02;;;5.50;;
34988;SDS011;21192;40.182;44.516;2022-07-12T03:47:02;18.60;;;5.35;;
34988;SDS011;21192;40.182;44.516;2022-07-12T03:49:28;24.98;;;6.40;;
34988;SDS011;21192;40.182;44.516;2022-07-12T03:51:54;24.55;;;5.60;;
34988;SDS011;21192;40.182;44.516;2022-07-12T03:54:20;28.80;;;6.13;;
34988;SDS011;21192;40.182;44.516;2022-07-12T03:56:45;23.77;;;5.88;;
34988;SDS011;21192;40.182;44.516;2022-07-12T03:59:30;22.17;;;5.43;;
34988;SDS011;21192;40.182;44.516;2022-07-12T04:01:56;28.75;;;6.22;;
34988;SDS011;21192;40.182;44.516;2022-07-12T04:04:22;20.17;;;5.47;;
34988;SDS011;21192;40.182;44.516;2022-07-12T04:06:48;29.42;;;6.68;;
34988;SDS011;21192;40.182;44.516;2022-07-12T04:09:14;20.10;;;6.10;;
34988;SDS011;21192;40.182;44.516;2022-07-12T04:11:40;26.40;;;6.22;;
34988;SDS011;21192;40.182;44.516;2022-07-12T04:14:06;25.00;;;6.05;;
34988;SDS011;21192;40.182;44.516;2022-07-12T04:16:32;34.40;;;6.80;;
34988;SDS011;21192;40.182;44.516;2022-07-12T04:18:58;17.27;;;5.35;;
34988;SDS011;21192;40.182;44.516;2022-07-12T04:21:24;19.80;;;4.78;;
34988;SDS011;21192;40.182;44.516;2022-07-12T04:23:50;18.05;;;5.25;;
34988;SDS011;21192;40.182;44.516;2022-07-12T04:26:16;25.70;;;4.90;;
34988;SDS011;21192;40.182;44.516;2022-07-12T04:28:42;22.42;;;5.15;;
34988;SDS011;21192;40.182;44.516;2022-07-12T04:31:08;23.77;;;5.47;;
34988;SDS011;21192;40.182;44.516;2022-07-12T04:33:34;20.65;;;5.28;;
34988;SDS011;21192;40.182;44.516;2022-07-12T04:36:00;25.92;;;4.85;;
34988;SDS011;21192;40.182;44.516;2022-07-12T04:38:26;20.92;;;4.80;;
34988;SDS011;21192;40.182;44.516;2022-07-12T04:40:52;26.35;;;5.63;;
34988;SDS011;21192;40.182;44.516;2022-07-12T04:43:18;19.17;;;5.13;;
34988;SDS011;21192;40.182;44.516;2022-07-12T04:45:44;19.05;;;4.85;;
34988;SDS011;21192;40.182;44.516;2022-07-12T04:48:10;23.17;;;5.50;;
34988;SDS011;21192;40.182;44.516;2022-07-12T04:50:37;29.15;;;6.53;;
34988;SDS011;21192;40.182;44.516;2022-07-12T04:53:04;29.08;;;7.18;;
34988;SDS011;21192;40.182;44.516;2022-07-12T04:55:30;24.70;;;5.15;;
34988;SDS011;21192;40.182;44.516;2022-07-12T04:57:56;22.63;;;5.80;;
34988;SDS011;21192;40.182;44.516;2022-07-12T05:00:22;22.77;;;4.47;;
34988;SDS011;21192;40.182;44.516;2022-07-12T05:02:48;21.25;;;4.72;;
34988;SDS011;21192;40.182;44.516;2022-07-12T05:05:14;18.17;;;4.85;;
34988;SDS011;21192;40.182;44.516;2022-07-12T05:07:40;26.80;;;5.80;;
34988;SDS011;21192;40.182;44.516;2022-07-12T05:10:07;22.25;;;5.15;;
34988;SDS011;21192;40.182;44.516;2022-07-12T05:12:36;35.20;;;6.35;;
34988;SDS011;21192;40.182;44.516;2022-07-12T05:15:03;25.85;;;6.05;;
34988;SDS011;21192;40.182;44.516;2022-07-12T05:17:30;25.33;;;6.45;;
34988;SDS011;21192;40.182;44.516;2022-07-12T05:19:56;29.25;;;9.02;;
34988;SDS011;21192;40.182;44.516;2022-07-12T05:22:22;27.15;;;6.60;;
34988;SDS011;21192;40.182;44.516;2022-07-12T05:24:48;33.55;;;7.53;;
34988;SDS011;21192;40.182;44.516;2022-07-12T05:27:14;34.70;;;9.18;;
34988;SDS011;21192;40.182;44.516;2022-07-12T05:29:40;26.70;;;7.30;;
34988;SDS011;21192;40.182;44.516;2022-07-12T05:32:06;26.70;;;6.72;;
34988;SDS011;21192;40.182;44.516;2022-07-12T05:34:32;22.42;;;6.63;;
34988;SDS011;21192;40.182;44.516;2022-07-12T05:36:58;29.38;;;9.07;;
34988;SDS011;21192;40.182;44.516;2022-07-12T05:39:24;25.42;;;7.18;;
34988;SDS011;21192;40.182;44.516;2022-07-12T05:41:50;26.38;;;7.30;;
34988;SDS011;21192;40.182;44.516;2022-07-12T05:44:16;24.00;;;6.28;;
34988;SDS011;21192;40.182;44.516;2022-07-12T05:46:44;24.38;;;6.57;;
34988;SDS011;21192;40.182;44.516;2022-07-12T05:49:10;36.80;;;9.82;;
34988;SDS011;21192;40.182;44.516;2022-07-12T05:51:36;28.17;;;7.00;;
34988;SDS011;21192;40.182;44.516;2022-07-12T05:54:20;22.27;;;7.13;;
34988;SDS011;21192;40.182;44.516;2022-07-12T05:56:46;27.35;;;6.68;;
34988;SDS011;21192;40.182;44.516;2022-07-12T05:59:13;27.30;;;7.32;;
34988;SDS011;21192;40.182;44.516;2022-07-12T06:01:39;32.17;;;6.60;;
34988;SDS011;21192;40.182;44.516;2022-07-12T06:04:05;34.38;;;7.90;;
34988;SDS011;21192;40.182;44.516;2022-07-12T06:06:31;26.23;;;7.18;;
34988;SDS011;21192;40.182;44.516;2022-07-12T06:08:57;38.65;;;7.95;;
34988;SDS011;21192;40.182;44.516;2022-07-12T06:11:22;28.48;;;7.47;;
34988;SDS011;21192;40.182;44.516;2022-07-12T06:13:48;22.13;;;6.90;;
34988;SDS011;21192;40.182;44.516;2022-07-12T06:16:15;29.83;;;5.88;;
34988;SDS011;21192;40.182;44.516;2022-07-12T06:18:42;22.77;;;5.53;;
34988;SDS011;21192;40.182;44.516;2022-07-12T06:21:08;25.80;;;6.45;;
34988;SDS011;21192;40.182;44.516;2022-07-12T06:23:33;28.08;;;7.78;;
34988;SDS011;21192;40.182;44.516;2022-07-12T06:25:59;19.63;;;6.68;;
34988;SDS011;21192;40.182;44.516;2022-07-12T06:28:25;30.10;;;7.85;;
34988;SDS011;21192;40.182;44.516;2022-07-12T06:30:51;24.67;;;7.18;;
34988;SDS011;21192;40.182;44.516;2022-07-12T06:33:17;28.20;;;6.65;;
34988;SDS011;21192;40.182;44.516;2022-07-12T06:35:43;33.65;;;8.23;;
34988;SDS011;21192;40.182;44.516;2022-07-12T06:38:09;39.35;;;8.77;;
34988;SDS011;21192;40.182;44.516;2022-07-12T06:40:35;27.50;;;8.40;;
34988;SDS011;21192;40.182;44.516;2022-07-12T06:43:01;30.13;;;6.75;;
34988;SDS011;21192;40.182;44.516;2022-07-12T06:45:27;25.40;;;5.95;;
34988;SDS011;21192;40.182;44.516;2022-07-12T06:47:53;32.58;;;7.65;;
34988;SDS011;21192;40.182;44.516;2022-07-12T06:50:19;33.33;;;7.00;;
34988;SDS011;21192;40.182;44.516;2022-07-12T06:52:45;32.03;;;7.50;;
34988;SDS011;21192;40.182;44.516;2022-07-12T06:55:11;26.40;;;6.82;;
34988;SDS011;21192;40.182;44.516;2022-07-12T06:57:37;29.92;;;6.35;;
34988;SDS011;21192;40.182;44.516;2022-07-12T07:00:04;35.28;;;8.13;;
34988;SDS011;21192;40.182;44.516;2022-07-12T07:02:30;25.75;;;6.72;;
34988;SDS011;21192;40.182;44.516;2022-07-12T07:04:56;34.03;;;6.82;;
34988;SDS011;21192;40.182;44.516;2022-07-12T07:07:22;17.65;;;5.00;;
34988;SDS011;21192;40.182;44.516;2022-07-12T07:09:48;25.23;;;6.50;;
34988;SDS011;21192;40.182;44.516;2022-07-12T07:12:14;31.83;;;8.25;;
34988;SDS011;21192;40.182;44.516;2022-07-12T07:14:40;31.48;;;7.57;;
34988;SDS011;21192;40.182;44.516;2022-07-12T07:17:06;24.95;;;6.10;;
34988;SDS011;21192;40.182;44.516;2022-07-12T07:19:33;40.67;;;7.38;;
34988;SDS011;21192;40.182;44.516;2022-07-12T07:21:59;81.40;;;12.90;;
34988;SDS011;21192;40.182;44.516;2022-07-12T07:24:25;27.70;;;6.45;;
34988;SDS011;21192;40.182;44.516;2022-07-12T07:26:51;28.58;;;6.55;;
34988;SDS011;21192;40.182;44.516;2022-07-12T07:29:17;28.60;;;7.78;;
34988;SDS011;21192;40.182;44.516;2022-07-12T07:32:01;33.83;;;8.18;;
34988;SDS011;21192;40.182;44.516;2022-07-12T07:34:27;32.05;;;7.78;;
34988;SDS011;21192;40.182;44.516;2022-07-12T07:36:53;33.42;;;6.65;;
34988;SDS011;21192;40.182;44.516;2022-07-12T07:39:19;20.13;;;5.30;;
34988;SDS011;21192;40.182;44.516;2022-07-12T07:41:46;21.23;;;6.35;;
34988;SDS011;21192;40.182;44.516;2022-07-12T07:44:12;32.58;;;7.90;;
34988;SDS011;21192;40.182;44.516;2022-07-12T07:46:38;30.00;;;6.43;;
34988;SDS011;21192;40.182;44.516;2022-07-12T07:49:04;26.08;;;6.30;;
34988;SDS011;21192;40.182;44.516;2022-07-12T07:51:30;27.83;;;6.90;;
34988;SDS011;21192;40.182;44.516;2022-07-12T07:53:55;24.38;;;7.60;;
34988;SDS011;21192;40.182;44.516;2022-07-12T07:56:21;34.33;;;6.80;;
34988;SDS011;21192;40.182;44.516;2022-07-12T07:58:47;26.80;;;8.48;;
34988;SDS011;21192;40.182;44.516;2022-07-12T08:01:13;24.83;;;7.35;;
34988;SDS011;21192;40.182;44.516;2022-07-12T08:03:39;33.47;;;7.85;;
34988;SDS011;21192;40.182;44.516;2022-07-12T08:06:05;25.75;;;5.57;;
34988;SDS011;21192;40.182;44.516;2022-07-12T08:08:31;26.65;;;6.45;;
34988;SDS011;21192;40.182;44.516;2022-07-12T08:10:57;37.25;;;7.32;;
34988;SDS011;21192;40.182;44.516;2022-07-12T08:13:24;26.15;;;7.85;;
34988;SDS011;21192;40.182;44.516;2022-07-12T08:15:49;24.38;;;5.22;;
34988;SDS011;21192;40.182;44.516;2022-07-12T08:18:16;26.98;;;6.18;;
34988;SDS011;21192;40.182;44.516;2022-07-12T08:20:42;28.55;;;5.63;;
34988;SDS011;21192;40.182;44.516;2022-07-12T08:23:08;29.38;;;5.82;;
34988;SDS011;21192;40.182;44.516;2022-07-12T08:25:34;21.90;;;5.60;;
34988;SDS011;21192;40.182;44.516;2022-07-12T08:28:00;24.40;;;7.35;;
34988;SDS011;21192;40.182;44.516;2022-07-12T08:30:26;17.15;;;5.13;;
34988;SDS011;21192;40.182;44.516;2022-07-12T08:32:52;25.65;;;6.15;;
34988;SDS011;21192;40.182;44.516;2022-07-12T08:35:20;29.40;;;6.18;;
34988;SDS011;21192;40.182;44.516;2022-07-12T08:37:46;26.35;;;5.38;;
34988;SDS011;21192;40.182;44.516;2022-07-12T08:40:12;26.10;;;5.85;;
34988;SDS011;21192;40.182;44.516;2022-07-12T08:42:41;35.13;;;6.47;;
34988;SDS011;21192;40.182;44.516;2022-07-12T08:45:08;30.20;;;5.65;;
34988;SDS011;21192;40.182;44.516;2022-07-12T08:47:34;34.47;;;7.68;;
34988;SDS011;21192;40.182;44.516;2022-07-12T08:52:44;27.83;;;5.90;;
34988;SDS011;21192;40.182;44.516;2022-07-12T08:57:51;25.23;;;6.35;;
34988;SDS011;21192;40.182;44.516;2022-07-12T09:00:18;26.45;;;6.50;;
34988;SDS011;21192;40.182;44.516;2022-07-12T09:02:49;42.47;;;11.07;;
34988;SDS011;21192;40.182;44.516;2022-07-12T09:05:24;32.20;;;10.02;;
34988;SDS011;21192;40.182;44.516;2022-07-12T09:08:06;34.30;;;10.23;;
34988;SDS011;21192;40.182;44.516;2022-07-12T09:10:55;30.30;;;8.50;;
34988;SDS011;21192;40.182;44.516;2022-07-12T09:16:20;30.35;;;6.97;;
34988;SDS011;21192;40.182;44.516;2022-07-12T09:18:48;30.20;;;9.27;;
34988;SDS011;21192;40.182;44.516;2022-07-12T09:21:22;27.85;;;8.18;;
34988;SDS011;21192;40.182;44.516;2022-07-12T09:23:53;31.25;;;6.00;;
34988;SDS011;21192;40.182;44.516;2022-07-12T09:26:21;26.50;;;5.28;;
34988;SDS011;21192;40.182;44.516;2022-07-12T09:28:50;24.05;;;5.05;;
34988;SDS011;21192;40.182;44.516;2022-07-12T09:31:17;23.65;;;5.38;;
34988;SDS011;21192;40.182;44.516;2022-07-12T09:33:58;17.38;;;5.18;;
34988;SDS011;21192;40.182;44.516;2022-07-12T09:37:05;25.27;;;4.97;;
34988;SDS011;21192;40.182;44.516;2022-07-12T09:39:30;19.85;;;5.53;;
34988;SDS011;21192;40.182;44.516;2022-07-12T09:41:56;28.83;;;6.43;;
34988;SDS011;21192;40.182;44.516;2022-07-12T09:44:23;24.33;;;6.13;;
34988;SDS011;21192;40.182;44.516;2022-07-12T09:46:50;28.35;;;6.93;;
34988;SDS011;21192;40.182;44.516;2022-07-12T09:49:16;30.65;;;7.15;;
34988;SDS011;21192;40.182;44.516;2022-07-12T09:51:44;30.55;;;7.80;;
34988;SDS011;21192;40.182;44.516;2022-07-12T09:54:10;26.35;;;6.55;;
34988;SDS011;21192;40.182;44.516;2022-07-12T09:56:43;31.80;;;7.90;;
34988;SDS011;21192;40.182;44.516;2022-07-12T09:59:12;35.33;;;9.45;;
34988;SDS011;21192;40.182;44.516;2022-07-12T10:01:39;31.65;;;6.28;;
34988;SDS011;21192;40.182;44.516;2022-07-12T10:04:06;26.58;;;5.72;;
34988;SDS011;21192;40.182;44.516;2022-07-12T10:06:34;30.90;;;6.82;;
34988;SDS011;21192;40.182;44.516;2022-07-12T10:09:00;27.50;;;7.35;;
34988;SDS011;21192;40.182;44.516;2022-07-12T10:11:28;29.23;;;7.85;;
34988;SDS011;21192;40.182;44.516;2022-07-12T10:13:55;31.75;;;10.98;;
34988;SDS011;21192;40.182;44.516;2022-07-12T10:16:27;32.97;;;9.32;;
34988;SDS011;21192;40.182;44.516;2022-07-12T10:21:50;34.38;;;9.05;;
34988;SDS011;21192;40.182;44.516;2022-07-12T10:26:58;33.70;;;8.13;;
34988;SDS011;21192;40.182;44.516;2022-07-12T10:29:52;26.60;;;7.40;;
34988;SDS011;21192;40.182;44.516;2022-07-12T10:32:55;36.38;;;7.00;;
34988;SDS011;21192;40.182;44.516;2022-07-12T10:35:25;38.70;;;10.48;;
34988;SDS011;21192;40.182;44.516;2022-07-12T10:41:31;25.98;;;7.57;;
34988;SDS011;21192;40.182;44.516;2022-07-12T10:47:19;35.08;;;7.47;;
34988;SDS011;21192;40.182;44.516;2022-07-12T10:49:46;33.97;;;7.22;;
34988;SDS011;21192;40.182;44.516;2022-07-12T10:52:25;37.60;;;9.30;;
34988;SDS011;21192;40.182;44.516;2022-07-12T10:57:53;31.10;;;8.98;;
34988;SDS011;21192;40.182;44.516;2022-07-12T11:08:12;32.05;;;8.23;;
34988;SDS011;21192;40.182;44.516;2022-07-12T11:10:39;36.97;;;11.05;;
34988;SDS011;21192;40.182;44.516;2022-07-12T11:13:22;27.05;;;6.65;;
34988;SDS011;21192;40.182;44.516;2022-07-12T11:16:01;42.78;;;8.82;;
34988;SDS011;21192;40.182;44.516;2022-07-12T11:18:29;27.88;;;7.57;;
34988;SDS011;21192;40.182;44.516;2022-07-12T11:20:57;30.08;;;7.53;;
34988;SDS011;21192;40.182;44.516;2022-07-12T11:23:24;36.38;;;9.63;;
34988;SDS011;21192;40.182;44.516;2022-07-12T11:25:54;30.30;;;8.25;;
34988;SDS011;21192;40.182;44.516;2022-07-12T11:28:22;35.97;;;7.35;;
34988;SDS011;21192;40.182;44.516;2022-07-12T11:30:49;23.52;;;6.13;;
34988;SDS011;21192;40.182;44.516;2022-07-12T11:33:41;27.20;;;7.15;;
34988;SDS011;21192;40.182;44.516;2022-07-12T11:36:42;32.60;;;7.55;;
34988;SDS011;21192;40.182;44.516;2022-07-12T11:42:31;27.73;;;6.03;;
34988;SDS011;21192;40.182;44.516;2022-07-12T11:44:57;33.10;;;8.23;;
34988;SDS011;21192;40.182;44.516;2022-07-12T11:47:23;28.48;;;6.65;;
34988;SDS011;21192;40.182;44.516;2022-07-12T11:49:50;31.30;;;7.90;;
34988;SDS011;21192;40.182;44.516;2022-07-12T11:52:21;34.50;;;7.10;;
34988;SDS011;21192;40.182;44.516;2022-07-12T11:54:48;29.23;;;6.32;;
34988;SDS011;21192;40.182;44.516;2022-07-12T11:57:18;31.35;;;6.57;;
34988;SDS011;21192;40.182;44.516;2022-07-12T11:59:45;35.47;;;7.30;;
34988;SDS011;21192;40.182;44.516;2022-07-12T12:02:11;21.45;;;5.80;;
34988;SDS011;21192;40.182;44.516;2022-07-12T12:04:48;23.52;;;6.38;;
34988;SDS011;21192;40.182;44.516;2022-07-12T12:07:16;29.15;;;9.38;;
34988;SDS011;21192;40.182;44.516;2022-07-12T12:15:12;23.92;;;7.07;;
34988;SDS011;21192;40.182;44.516;2022-07-12T12:17:55;28.73;;;8.95;;
34988;SDS011;21192;40.182;44.516;2022-07-12T12:20:42;45.25;;;11.25;;
34988;SDS011;21192;40.182;44.516;2022-07-12T12:23:15;40.53;;;12.25;;
34988;SDS011;21192;40.182;44.516;2022-07-12T12:25:43;43.08;;;17.63;;
34988;SDS011;21192;40.182;44.516;2022-07-12T12:28:11;37.90;;;10.10;;
34988;SDS011;21192;40.182;44.516;2022-07-12T12:30:55;35.30;;;10.18;;
34988;SDS011;21192;40.182;44.516;2022-07-12T12:36:56;25.85;;;7.07;;
34988;SDS011;21192;40.182;44.516;2022-07-12T12:42:53;25.95;;;5.85;;
34988;SDS011;21192;40.182;44.516;2022-07-12T12:55:57;23.80;;;6.10;;
34988;SDS011;21192;40.182;44.516;2022-07-12T12:58:24;24.05;;;6.53;;
34988;SDS011;21192;40.182;44.516;2022-07-12T13:00:51;26.13;;;5.50;;
34988;SDS011;21192;40.182;44.516;2022-07-12T13:03:27;27.67;;;7.10;;
34988;SDS011;21192;40.182;44.516;2022-07-12T13:13:16;38.78;;;7.47;;
34988;SDS011;21192;40.182;44.516;2022-07-12T13:29:11;41.55;;;7.45;;
34988;SDS011;21192;40.182;44.516;2022-07-12T13:31:38;29.05;;;8.27;;
34988;SDS011;21192;40.182;44.516;2022-07-12T13:50:21;61.85;;;15.85;;
34988;SDS011;21192;40.182;44.516;2022-07-12T13:52:48;59.08;;;13.07;;
34988;SDS011;21192;40.182;44.516;2022-07-12T13:55:15;41.28;;;10.20;;
34988;SDS011;21192;40.182;44.516;2022-07-12T13:57:45;36.03;;;10.75;;
34988;SDS011;21192;40.182;44.516;2022-07-12T14:03:35;40.60;;;9.30;;
34988;SDS011;21192;40.182;44.516;2022-07-12T16:16:32;28.17;;;8.18;;
34988;SDS011;21192;40.182;44.516;2022-07-12T16:19:11;23.40;;;6.40;;
34988;SDS011;21192;40.182;44.516;2022-07-12T16:21:36;30.02;;;6.85;;
34988;SDS011;21192;40.182;44.516;2022-07-12T16:24:02;30.00;;;6.68;;
34988;SDS011;21192;40.182;44.516;2022-07-12T16:26:29;26.92;;;6.57;;
34988;SDS011;21192;40.182;44.516;2022-07-12T16:28:55;31.35;;;6.75;;
34988;SDS011;21192;40.182;44.516;2022-07-12T16:31:21;27.17;;;7.78;;
34988;SDS011;21192;40.182;44.516;2022-07-12T16:33:47;31.15;;;7.07;;
34988;SDS011;21192;40.182;44.516;2022-07-12T16:36:13;29.40;;;5.53;;
34988;SDS011;21192;40.182;44.516;2022-07-12T16:38:39;47.90;;;6.57;;
34988;SDS011;21192;40.182;44.516;2022-07-12T16:41:05;35.75;;;6.30;;
34988;SDS011;21192;40.182;44.516;2022-07-12T16:43:30;27.50;;;7.55;;
34988;SDS011;21192;40.182;44.516;2022-07-12T16:45:57;29.40;;;5.82;;
34988;SDS011;21192;40.182;44.516;2022-07-12T16:48:22;35.05;;;8.68;;
34988;SDS011;21192;40.182;44.516;2022-07-12T16:50:48;33.28;;;8.48;;
34988;SDS011;21192;40.182;44.516;2022-07-12T16:53:34;32.30;;;7.13;;
34988;SDS011;21192;40.182;44.516;2022-07-12T16:56:01;36.70;;;8.75;;
34988;SDS011;21192;40.182;44.516;2022-07-12T16:58:28;38.30;;;8.63;;
34988;SDS011;21192;40.182;44.516;2022-07-12T17:00:54;32.13;;;8.77;;
34988;SDS011;21192;40.182;44.516;2022-07-12T17:03:21;47.45;;;10.13;;
34988;SDS011;21192;40.182;44.516;2022-07-12T17:05:47;33.78;;;8.02;;
34988;SDS011;21192;40.182;44.516;2022-07-12T17:08:13;35.83;;;9.02;;
34988;SDS011;21192;40.182;44.516;2022-07-12T17:10:39;29.50;;;5.43;;
34988;SDS011;21192;40.182;44.516;2022-07-12T17:13:05;31.77;;;8.85;;
34988;SDS011;21192;40.182;44.516;2022-07-12T17:15:32;27.02;;;6.60;;
34988;SDS011;21192;40.182;44.516;2022-07-12T17:17:58;30.42;;;7.68;;
34988;SDS011;21192;40.182;44.516;2022-07-12T17:20:24;38.45;;;8.48;;
34988;SDS011;21192;40.182;44.516;2022-07-12T17:22:50;56.05;;;12.23;;
34988;SDS011;21192;40.182;44.516;2022-07-12T17:25:19;33.83;;;10.07;;
34988;SDS011;21192;40.182;44.516;2022-07-12T17:27:45;28.70;;;8.80;;
34988;SDS011;21192;40.182;44.516;2022-07-12T17:30:11;33.80;;;9.43;;
34988;SDS011;21192;40.182;44.516;2022-07-12T17:32:37;31.40;;;7.90;;
34988;SDS011;21192;40.182;44.516;2022-07-12T17:35:06;35.28;;;9.95;;
34988;SDS011;21192;40.182;44.516;2022-07-12T17:37:32;35.63;;;10.25;;
34988;SDS011;21192;40.182;44.516;2022-07-12T17:39:58;41.17;;;10.35;;
34988;SDS011;21192;40.182;44.516;2022-07-12T17:42:24;35.83;;;9.80;;
34988;SDS011;21192;40.182;44.516;2022-07-12T17:44:50;28.83;;;7.18;;
34988;SDS011;21192;40.182;44.516;2022-07-12T17:47:16;27.02;;;6.53;;
34988;SDS011;21192;40.182;44.516;2022-07-12T17:49:42;29.13;;;7.38;;
34988;SDS011;21192;40.182;44.516;2022-07-12T17:52:08;29.33;;;8.18;;
34988;SDS011;21192;40.182;44.516;2022-07-12T17:54:34;34.17;;;8.75;;
34988;SDS011;21192;40.182;44.516;2022-07-12T17:57:00;24.85;;;7.07;;
34988;SDS011;21192;40.182;44.516;2022-07-12T17:59:26;48.28;;;9.32;;
34988;SDS011;21192;40.182;44.516;2022-07-12T18:01:52;30.83;;;6.80;;
34988;SDS011;21192;40.182;44.516;2022-07-12T18:04:18;25.75;;;7.15;;
34988;SDS011;21192;40.182;44.516;2022-07-12T18:06:43;27.95;;;6.38;;
34988;SDS011;21192;40.182;44.516;2022-07-12T18:09:11;32.67;;;6.45;;
34988;SDS011;21192;40.182;44.516;2022-07-12T18:11:37;32.60;;;7.35;;
34988;SDS011;21192;40.182;44.516;2022-07-12T18:14:22;33.75;;;5.40;;